Time;durP1;ratioP1;P1;durP2;ratioP2;P2;SDS_P1;SDS_P2;PMS_P1;PMS_P2;Temp;Humidity;BMP_temperature;BMP_pressure;BME280_temperature;BME280_humidity;BME280_pressure;Samples;Min_cycle;Max_cycle;Signal;HPM_P1;HPM_P2
2020/12/29 00:02:07;;;;;;;0.95;0.95;;;14.60;79.30;;;;;;4229162;28;20089;-42
2020/12/29 00:04:28;;;;;;;0.52;0.32;;;14.70;80.00;;;;;;4228227;28;20142;-41
2020/12/29 00:06:52;;;;;;;0.30;0.30;;;14.70;78.90;;;;;;4229122;28;20143;-41
2020/12/29 00:09:13;;;;;;;9.13;1.15;;;14.60;78.90;;;;;;4227623;28;20074;-41
2020/12/29 00:11:34;;;;;;;;;;;14.60;78.90;;;;;;4229549;28;20052;-41
2020/12/29 00:13:55;;;;;;;0.07;0.07;;;14.60;79.00;;;;;;4229344;28;19927;-41
2020/12/29 00:16:15;;;;;;;0.08;0.08;;;14.60;78.90;;;;;;4228827;28;20390;-41
2020/12/29 00:18:36;;;;;;;1.35;1.25;;;14.50;79.10;;;;;;4228200;28;20055;-41
2020/12/29 00:20:57;;;;;;;0.57;0.57;;;14.50;79.30;;;;;;4229460;28;20079;-43
2020/12/29 00:23:18;;;;;;;0.10;0.10;;;14.60;79.20;;;;;;4229042;28;20051;-42
2020/12/29 00:25:39;;;;;;;1.58;0.85;;;14.60;79.00;;;;;;4228827;28;20130;-42
2020/12/29 00:28:00;;;;;;;0.30;0.30;;;14.60;78.90;;;;;;4229291;28;20395;-46
2020/12/29 00:30:21;;;;;;;0.17;0.17;;;14.60;78.90;;;;;;4228097;28;20056;-42
2020/12/29 00:32:42;;;;;;;0.00;0.00;;;14.60;79.00;;;;;;4229414;28;20075;-42
2020/12/29 00:35:03;;;;;;;0.20;0.20;;;14.60;79.10;;;;;;4228917;28;20060;-42
2020/12/29 00:37:25;;;;;;;0.22;0.22;;;14.60;79.20;;;;;;4228904;28;20112;-42
2020/12/29 00:39:46;;;;;;;0.03;0.03;;;14.50;79.10;;;;;;4229284;28;20051;-41
2020/12/29 00:42:07;;;;;;;0.28;0.28;;;14.40;79.20;;;;;;4229297;28;20509;-41
2020/12/29 00:44:29;;;;;;;0.95;0.95;;;14.60;79.40;;;;;;4227750;28;20048;-41
2020/12/29 00:46:51;;;;;;;0.10;0.10;;;14.80;78.30;;;;;;4227718;28;20486;-41
2020/12/29 00:49:12;;;;;;;0.90;0.90;;;15.10;77.00;;;;;;4232539;28;20054;-41
2020/12/29 00:51:33;;;;;;;0.00;0.00;;;15.30;75.70;;;;;;4232340;28;20477;-41
2020/12/29 00:53:56;;;;;;;0.32;0.28;;;15.40;74.90;;;;;;4214221;28;20790;-41
2020/12/29 00:56:19;;;;;;;0.95;0.88;;;15.50;74.60;;;;;;4228029;28;20521;-41
2020/12/29 00:58:43;;;;;;;0.77;0.77;;;15.50;74.40;;;;;;4231319;28;20075;-41
2020/12/29 01:01:09;;;;;;;3.67;0.80;;;15.50;74.20;;;;;;4231260;28;20140;-41
2020/12/29 01:03:46;;;;;;;0.57;0.57;;;15.50;74.20;;;;;;4230882;28;20052;-41
2020/12/29 01:06:09;;;;;;;0.32;0.32;;;15.60;74.10;;;;;;4230709;28;20055;-41
2020/12/29 01:08:30;;;;;;;0.55;0.55;;;15.60;73.90;;;;;;4219947;28;20135;-42
2020/12/29 01:10:53;;;;;;;0.90;0.90;;;15.60;73.90;;;;;;4231969;28;20101;-42
2020/12/29 01:13:26;;;;;;;2.08;1.45;;;15.60;73.90;;;;;;4231073;28;20055;-41
2020/12/29 01:15:49;;;;;;;0.15;0.15;;;15.60;73.90;;;;;;4230676;28;20087;-42
2020/12/29 01:18:10;;;;;;;0.30;0.30;;;15.60;73.60;;;;;;4230727;28;20918;-41
2020/12/29 01:20:31;;;;;;;0.57;0.57;;;15.60;73.40;;;;;;4215400;28;20056;-40
2020/12/29 01:22:52;;;;;;;1.08;1.08;;;15.60;73.60;;;;;;4215345;28;20058;-41
2020/12/29 01:25:13;;;;;;;0.25;0.25;;;15.70;73.50;;;;;;4220468;28;20502;-41
2020/12/29 01:27:35;;;;;;;0.20;0.20;;;15.80;72.80;;;;;;4231637;28;20060;-43
2020/12/29 01:29:57;;;;;;;0.17;0.17;;;16.10;71.60;;;;;;4231638;28;20293;-42
2020/12/29 01:32:18;;;;;;;0.22;0.22;;;16.20;70.80;;;;;;4231514;27;20138;-42
2020/12/29 01:34:39;;;;;;;0.25;0.25;;;16.30;70.50;;;;;;4213563;28;20508;-42
2020/12/29 01:37:00;;;;;;;0.10;0.10;;;16.30;70.50;;;;;;4214617;28;20083;-42
2020/12/29 01:39:22;;;;;;;0.20;0.20;;;16.20;70.50;;;;;;4227673;28;20138;-42
2020/12/29 01:41:43;;;;;;;0.00;0.00;;;16.10;70.70;;;;;;4214653;28;20069;-42
2020/12/29 01:44:14;;;;;;;0.10;0.10;;;16.00;71.00;;;;;;4214737;28;20052;-42
2020/12/29 01:46:39;;;;;;;0.30;0.30;;;16.00;71.30;;;;;;4214944;28;20052;-42
2020/12/29 01:49:00;;;;;;;0.35;0.35;;;15.90;71.50;;;;;;4214442;28;20048;-42
2020/12/29 01:51:21;;;;;;;;;;;15.80;72.00;;;;;;4214800;28;20052;-42
2020/12/29 01:53:42;;;;;;;0.10;0.10;;;15.80;72.30;;;;;;4214375;28;19920;-42
2020/12/29 01:56:04;;;;;;;0.05;0.05;;;15.80;72.30;;;;;;4228389;28;20495;-42
2020/12/29 01:58:25;;;;;;;;;;;15.70;72.40;;;;;;4231812;28;20051;-42
2020/12/29 02:00:47;;;;;;;0.45;0.45;;;15.70;72.60;;;;;;4231224;28;19927;-42
2020/12/29 02:03:11;;;;;;;0.50;0.50;;;15.60;72.80;;;;;;4231499;28;20073;-42
2020/12/29 02:05:33;;;;;;;0.40;0.40;;;15.50;72.90;;;;;;4230714;28;20051;-42
2020/12/29 02:07:54;;;;;;;0.32;0.32;;;15.60;73.00;;;;;;4230806;28;20043;-42
2020/12/29 02:10:16;;;;;;;0.00;0.00;;;15.70;72.50;;;;;;4221703;28;20170;-42
2020/12/29 02:12:37;;;;;;;0.10;0.10;;;15.80;72.30;;;;;;4230972;27;20104;-42
2020/12/29 02:14:59;;;;;;;0.00;0.00;;;15.80;72.10;;;;;;4231591;28;20079;-42
2020/12/29 02:17:24;;;;;;;0.30;0.30;;;15.90;71.60;;;;;;4230884;28;20058;-42
2020/12/29 02:19:46;;;;;;;0.00;0.00;;;16.00;71.10;;;;;;4230435;28;20152;-42
2020/12/29 02:22:07;;;;;;;1.35;1.27;;;16.10;70.70;;;;;;4230930;28;20047;-42
2020/12/29 02:24:29;;;;;;;0.30;0.30;;;16.20;70.00;;;;;;4230983;27;20051;-42
2020/12/29 02:26:50;;;;;;;;;;;16.20;69.60;;;;;;4231216;28;20051;-44
2020/12/29 02:29:11;;;;;;;0.57;0.57;;;16.20;69.60;;;;;;4230867;28;20354;-41
2020/12/29 02:31:31;;;;;;;0.17;0.17;;;16.20;69.90;;;;;;4230824;28;20082;-43
2020/12/29 02:33:53;;;;;;;0.13;0.13;;;16.10;70.20;;;;;;4230574;28;20096;-45
2020/12/29 02:36:14;;;;;;;0.00;0.00;;;16.10;70.60;;;;;;4230779;28;20271;-47
2020/12/29 02:38:34;;;;;;;0.00;0.00;;;16.00;70.60;;;;;;4231144;28;20056;-43
2020/12/29 02:40:56;;;;;;;0.10;0.10;;;16.10;70.40;;;;;;4230270;28;20830;-42
2020/12/29 02:43:17;;;;;;;0.32;0.32;;;16.20;70.20;;;;;;4230114;28;20055;-42
2020/12/29 02:45:38;;;;;;;0.20;0.20;;;16.20;70.10;;;;;;4230114;28;20130;-42
2020/12/29 02:47:58;;;;;;;0.40;0.40;;;16.10;70.30;;;;;;4213586;28;20497;-42
2020/12/29 02:50:19;;;;;;;0.20;0.20;;;16.10;70.40;;;;;;4213474;28;20051;-41
2020/12/29 02:52:39;;;;;;;0.50;0.50;;;16.10;70.30;;;;;;4213399;28;20135;-41
2020/12/29 02:55:00;;;;;;;0.57;0.47;;;16.10;70.40;;;;;;4221962;28;20048;-41
2020/12/29 02:57:22;;;;;;;0.20;0.20;;;16.10;70.30;;;;;;4230706;28;20055;-41
2020/12/29 02:59:43;;;;;;;0.15;0.15;;;16.00;70.60;;;;;;4221848;28;20066;-42
2020/12/29 03:02:04;;;;;;;0.22;0.22;;;16.00;70.90;;;;;;4230405;28;20138;-42
2020/12/29 03:04:25;;;;;;;0.28;0.28;;;16.00;71.10;;;;;;4230135;28;20513;-42
2020/12/29 03:06:46;;;;;;;0.10;0.10;;;16.10;70.60;;;;;;4229429;28;20127;-42
2020/12/29 03:09:07;;;;;;;;;;;16.40;69.30;;;;;;4230307;28;20051;-42
2020/12/29 03:11:29;;;;;;;0.20;0.20;;;16.60;68.20;;;;;;4229898;28;19975;-41
2020/12/29 03:13:51;;;;;;;0.73;0.22;;;16.70;67.60;;;;;;4230091;28;20486;-41
2020/12/29 03:16:11;;;;;;;1.55;0.73;;;16.60;67.60;;;;;;4230113;28;20070;-42
2020/12/29 03:18:33;;;;;;;0.25;0.25;;;16.60;67.90;;;;;;4229515;28;20160;-42
2020/12/29 03:20:54;;;;;;;0.30;0.30;;;16.50;68.20;;;;;;4229473;28;20112;-42
2020/12/29 03:23:15;;;;;;;0.85;0.85;;;16.40;68.40;;;;;;4230504;28;20056;-42
2020/12/29 03:25:36;;;;;;;0.08;0.08;;;16.40;68.90;;;;;;4229346;28;20104;-41
2020/12/29 03:27:57;;;;;;;0.45;0.45;;;16.30;69.10;;;;;;4229871;28;20055;-42
2020/12/29 03:30:18;;;;;;;0.32;0.32;;;16.20;69.50;;;;;;4229740;27;20539;-43
2020/12/29 03:32:39;;;;;;;0.00;0.00;;;16.10;69.90;;;;;;4229260;27;20048;-42
2020/12/29 03:35:00;;;;;;;0.10;0.10;;;16.00;70.30;;;;;;4228663;28;20047;-41
2020/12/29 03:37:21;;;;;;;0.00;0.00;;;15.90;70.80;;;;;;4229277;27;20097;-45
2020/12/29 03:39:43;;;;;;;0.00;0.00;;;15.80;71.20;;;;;;4229685;28;20538;-42
2020/12/29 03:42:05;;;;;;;0.10;0.10;;;15.80;71.50;;;;;;4229802;28;20410;-43
2020/12/29 03:44:26;;;;;;;0.00;0.00;;;15.90;71.00;;;;;;4229480;28;20826;-43
2020/12/29 03:46:47;;;;;;;0.20;0.20;;;16.10;70.40;;;;;;4229124;28;20051;-42
2020/12/29 03:49:08;;;;;;;0.03;0.03;;;16.20;69.80;;;;;;4229873;28;20052;-41
2020/12/29 03:51:29;;;;;;;0.98;0.98;;;16.20;69.70;;;;;;4229475;28;20571;-41
2020/12/29 03:53:50;;;;;;;0.38;0.38;;;16.20;69.90;;;;;;4229452;28;20052;-41
2020/12/29 03:56:11;;;;;;;0.00;0.00;;;16.30;69.30;;;;;;4228490;28;20051;-41
2020/12/29 03:58:31;;;;;;;0.10;0.10;;;16.50;68.40;;;;;;4229040;28;20048;-42
2020/12/29 04:00:53;;;;;;;0.10;0.10;;;16.60;67.80;;;;;;4229536;28;20051;-42
2020/12/29 04:03:15;;;;;;;0.10;0.10;;;16.60;67.50;;;;;;4229366;28;20828;-40
2020/12/29 04:05:36;;;;;;;0.00;0.00;;;16.60;67.40;;;;;;4229656;28;20493;-42
2020/12/29 04:07:56;;;;;;;0.10;0.10;;;16.70;67.40;;;;;;4229002;28;20058;-41
2020/12/29 04:10:18;;;;;;;0.00;0.00;;;16.60;67.20;;;;;;4229023;28;20064;-42
2020/12/29 04:12:38;;;;;;;0.05;0.05;;;16.60;67.60;;;;;;4229138;28;20504;-42
2020/12/29 04:15:00;;;;;;;0.00;0.00;;;16.50;67.90;;;;;;4229591;28;20486;-42
2020/12/29 04:17:20;;;;;;;0.90;0.90;;;16.40;68.30;;;;;;4228908;28;20055;-42
2020/12/29 04:19:42;;;;;;;1.27;1.27;;;16.50;68.40;;;;;;4229138;28;20066;-42
2020/12/29 04:22:03;;;;;;;0.63;0.63;;;16.40;68.30;;;;;;4228170;28;20052;-41
2020/12/29 04:24:23;;;;;;;0.20;0.20;;;16.40;68.40;;;;;;4228963;28;20055;-41
2020/12/29 04:26:44;;;;;;;0.00;0.00;;;16.30;68.70;;;;;;4228872;28;20063;-42
2020/12/29 04:29:05;;;;;;;0.20;0.20;;;16.20;69.10;;;;;;4229049;28;20056;-40
2020/12/29 04:31:26;;;;;;;0.00;0.00;;;16.30;69.00;;;;;;4229073;28;20098;-42
2020/12/29 04:33:46;;;;;;;0.10;0.10;;;16.40;68.50;;;;;;4229040;28;20043;-41
2020/12/29 04:36:08;;;;;;;0.30;0.30;;;16.40;68.40;;;;;;4228893;28;20043;-41
2020/12/29 04:38:28;;;;;;;0.10;0.10;;;16.40;68.50;;;;;;4229437;28;20460;-41
2020/12/29 04:40:49;;;;;;;0.80;0.80;;;16.30;68.70;;;;;;4228843;28;20058;-42
2020/12/29 04:43:10;;;;;;;0.00;0.00;;;16.20;69.00;;;;;;4229070;28;20116;-43
2020/12/29 04:45:31;;;;;;;;;;;16.40;68.70;;;;;;4229256;28;20476;-41
2020/12/29 04:47:54;;;;;;;0.00;0.00;;;16.60;67.60;;;;;;4228875;28;19924;-41
2020/12/29 04:50:17;;;;;;;0.00;0.00;;;16.80;66.70;;;;;;4228787;28;20051;-41
2020/12/29 04:52:42;;;;;;;0.00;0.00;;;16.80;66.20;;;;;;4228950;28;20051;-42
2020/12/29 04:55:14;;;;;;;0.15;0.15;;;16.80;66.20;;;;;;4229041;28;20418;-42
2020/12/29 04:57:36;;;;;;;0.10;0.10;;;16.70;66.50;;;;;;4228794;28;20060;-45
2020/12/29 04:59:56;;;;;;;0.35;0.35;;;16.60;66.90;;;;;;4228760;28;20056;-42
2020/12/29 05:02:17;;;;;;;0.00;0.00;;;16.60;67.20;;;;;;4228721;28;20070;-42
2020/12/29 05:04:38;;;;;;;0.55;0.55;;;16.50;67.30;;;;;;4228562;28;20052;-41
2020/12/29 05:06:59;;;;;;;0.10;0.10;;;16.40;67.70;;;;;;4229191;28;20103;-41
2020/12/29 05:09:21;;;;;;;0.25;0.25;;;16.30;68.10;;;;;;4228424;28;20056;-41
2020/12/29 05:11:42;;;;;;;0.25;0.17;;;16.30;68.50;;;;;;4228656;28;20409;-41
2020/12/29 05:14:04;;;;;;;0.10;0.10;;;16.40;68.20;;;;;;4228743;28;20539;-42
2020/12/29 05:16:25;;;;;;;0.00;0.00;;;16.50;67.40;;;;;;4228744;28;20051;-41
2020/12/29 05:18:46;;;;;;;0.25;0.25;;;16.70;66.40;;;;;;4229057;28;20413;-41
2020/12/29 05:21:07;;;;;;;0.00;0.00;;;16.90;65.80;;;;;;4229053;28;20047;-41
2020/12/29 05:23:29;;;;;;;0.40;0.40;;;16.90;65.30;;;;;;4228882;28;20062;-41
2020/12/29 05:25:55;;;;;;;0.30;0.30;;;16.90;65.10;;;;;;4228820;28;20459;-44
2020/12/29 05:28:17;;;;;;;0.10;0.10;;;16.90;65.30;;;;;;4227675;28;20517;-41
2020/12/29 05:30:38;;;;;;;0.00;0.00;;;16.80;65.60;;;;;;4228795;28;20774;-41
2020/12/29 05:33:01;;;;;;;0.80;0.68;;;16.70;66.20;;;;;;4228275;28;20752;-41
2020/12/29 05:35:24;;;;;;;0.47;0.47;;;16.60;66.60;;;;;;4230713;28;20087;-41
2020/12/29 05:37:46;;;;;;;0.00;0.00;;;16.60;66.70;;;;;;4231267;28;20055;-42
2020/12/29 05:40:23;;;;;;;0.08;0.08;;;16.80;65.80;;;;;;4230737;28;20050;-42
2020/12/29 05:42:49;;;;;;;0.52;0.52;;;17.10;64.60;;;;;;4231994;28;20047;-43
2020/12/29 05:45:13;;;;;;;0.00;0.00;;;17.20;64.00;;;;;;4231492;28;20054;-43
2020/12/29 05:47:34;;;;;;;0.00;0.00;;;17.20;63.80;;;;;;4230726;28;20044;-42
2020/12/29 05:50:04;;;;;;;0.00;0.00;;;17.30;63.60;;;;;;4231315;27;20499;-42
2020/12/29 05:52:26;;;;;;;0.00;0.00;;;17.30;63.60;;;;;;4231255;28;20140;-42
2020/12/29 05:54:48;;;;;;;0.00;0.00;;;17.10;63.90;;;;;;4230950;28;20056;-43
2020/12/29 05:57:12;;;;;;;0.03;0.03;;;17.00;64.40;;;;;;4230921;27;20047;-44
2020/12/29 05:59:35;;;;;;;0.00;0.00;;;16.90;65.00;;;;;;4230898;28;20497;-42
2020/12/29 06:01:56;;;;;;;0.00;0.00;;;16.80;66.40;;;;;;4231080;28;20512;-42
2020/12/29 06:04:18;;;;;;;0.00;0.00;;;16.80;65.80;;;;;;4231206;27;20134;-43
2020/12/29 06:06:41;;;;;;;0.00;0.00;;;16.80;65.40;;;;;;4230937;28;20051;-42
2020/12/29 06:09:06;;;;;;;0.30;0.30;;;16.90;65.10;;;;;;4230660;28;20047;-42
2020/12/29 06:11:51;;;;;;;0.00;0.00;;;16.80;65.10;;;;;;4230998;28;20043;-42
2020/12/29 06:14:14;;;;;;;0.00;0.00;;;16.80;65.00;;;;;;4231358;28;20728;-42
2020/12/29 06:16:38;;;;;;;0.00;0.00;;;16.70;65.30;;;;;;4231103;28;20059;-43
2020/12/29 06:19:03;;;;;;;1.02;0.80;;;16.60;65.80;;;;;;4230874;28;20051;-42
2020/12/29 06:21:27;;;;;;;0.00;0.00;;;16.50;66.50;;;;;;4230630;28;20051;-43
2020/12/29 06:23:49;;;;;;;0.22;0.22;;;16.40;66.80;;;;;;4230442;28;20044;-42
2020/12/29 06:26:10;;;;;;;0.00;0.00;;;16.40;66.90;;;;;;4230666;28;20055;-42
2020/12/29 06:28:37;;;;;;;0.40;0.40;;;16.70;65.90;;;;;;4231234;27;20044;-42
2020/12/29 06:31:00;;;;;;;0.00;0.00;;;16.80;65.00;;;;;;4231149;28;20051;-41
2020/12/29 06:33:23;;;;;;;0.60;0.60;;;16.90;64.70;;;;;;4230834;28;20055;-41
2020/12/29 06:35:44;;;;;;;0.28;0.28;;;16.90;64.60;;;;;;4230492;28;20116;-42
2020/12/29 06:38:13;;;;;;;0.00;0.00;;;16.90;64.40;;;;;;4230517;28;20048;-42
2020/12/29 06:40:34;;;;;;;0.05;0.05;;;16.90;64.30;;;;;;4230677;28;20048;-42
2020/12/29 06:42:55;;;;;;;;;;;16.90;64.60;;;;;;4231582;28;20075;-42
2020/12/29 06:45:16;;;;;;;1.05;0.55;;;16.80;64.90;;;;;;4229747;28;20006;-41
2020/12/29 06:47:38;;;;;;;0.20;0.20;;;16.80;65.10;;;;;;4230363;28;20058;-43
2020/12/29 06:50:00;;;;;;;0.25;0.25;;;16.80;65.10;;;;;;4230300;28;20051;-42
2020/12/29 06:52:32;;;;;;;0.00;0.00;;;16.70;65.20;;;;;;4230275;28;20051;-42
2020/12/29 06:54:55;;;;;;;0.17;0.17;;;16.60;65.60;;;;;;4229896;28;20414;-42
2020/12/29 06:57:16;;;;;;;0.57;0.57;;;16.60;65.90;;;;;;4230176;27;20055;-42
2020/12/29 06:59:40;;;;;;;0.00;0.00;;;16.70;65.60;;;;;;4230522;28;20097;-42
2020/12/29 07:02:03;;;;;;;0.13;0.13;;;16.70;65.30;;;;;;4230148;28;20047;-42
2020/12/29 07:04:25;;;;;;;0.08;0.08;;;16.60;65.50;;;;;;4230119;28;20051;-42
2020/12/29 07:06:47;;;;;;;0.00;0.00;;;16.60;66.00;;;;;;4229841;28;20088;-42
2020/12/29 07:09:26;;;;;;;1.55;1.45;;;16.60;66.10;;;;;;4229462;28;20054;-42
2020/12/29 07:12:02;;;;;;;0.10;0.10;;;16.70;66.00;;;;;;4230178;28;20055;-42
2020/12/29 07:14:31;;;;;;;5.88;2.50;;;16.90;65.70;;;;;;4230146;28;20043;-42
2020/12/29 07:16:52;;;;;;;0.20;0.20;;;17.20;64.60;;;;;;4228908;28;20143;-41
2020/12/29 07:19:14;;;;;;;0.00;0.00;;;17.20;64.60;;;;;;4228997;28;20054;-41
2020/12/29 07:21:35;;;;;;;0.00;0.00;;;17.20;65.30;;;;;;4230262;28;20087;-42
2020/12/29 07:23:57;;;;;;;0.03;0.03;;;17.20;65.40;;;;;;4229864;28;20079;-42
2020/12/29 07:26:25;;;;;;;0.10;0.10;;;17.10;65.70;;;;;;4230079;28;20051;-42
2020/12/29 07:28:49;;;;;;;0.57;0.57;;;17.00;65.80;;;;;;4229802;27;20050;-42
2020/12/29 07:31:14;;;;;;;0.90;0.82;;;17.10;65.60;;;;;;4230088;28;20058;-41
2020/12/29 07:33:47;;;;;;;0.00;0.00;;;17.10;65.70;;;;;;4229837;28;20051;-41
2020/12/29 07:36:11;;;;;;;0.10;0.10;;;17.00;65.80;;;;;;4227662;28;20484;-43
2020/12/29 07:38:37;;;;;;;0.03;0.03;;;16.90;66.10;;;;;;4226221;28;20607;-40
2020/12/29 07:40:59;;;;;;;0.00;0.00;;;16.90;66.10;;;;;;4230188;28;20047;-42
2020/12/29 07:43:20;;;;;;;0.20;0.20;;;16.90;65.80;;;;;;4230290;27;20152;-42
2020/12/29 07:45:41;;;;;;;0.10;0.10;;;16.90;65.70;;;;;;4229678;28;20474;-42
2020/12/29 07:48:04;;;;;;;0.13;0.13;;;16.80;66.10;;;;;;4229818;28;20046;-42
2020/12/29 07:50:26;;;;;;;1.17;1.10;;;16.80;66.10;;;;;;4229805;28;20055;-41
2020/12/29 07:52:47;;;;;;;0.00;0.00;;;16.90;65.60;;;;;;4229393;28;20057;-42
2020/12/29 07:55:10;;;;;;;0.20;0.20;;;17.00;65.40;;;;;;4213774;28;20040;-42
2020/12/29 07:57:32;;;;;;;0.00;0.00;;;16.90;65.40;;;;;;4228687;28;20069;-42
2020/12/29 08:00:04;;;;;;;0.20;0.20;;;16.80;65.80;;;;;;4228884;28;20516;-43
2020/12/29 08:02:32;;;;;;;0.00;0.00;;;16.70;66.20;;;;;;4229163;28;20051;-44
2020/12/29 08:05:00;;;;;;;0.03;0.03;;;16.70;66.50;;;;;;4229596;28;20056;-41
2020/12/29 08:07:21;;;;;;;0.00;0.00;;;16.90;65.70;;;;;;4229730;28;20083;-42
2020/12/29 08:09:55;;;;;;;1.30;0.22;;;17.10;64.90;;;;;;4228479;28;20494;-42
2020/12/29 08:12:17;;;;;;;0.15;0.15;;;17.10;64.40;;;;;;4229102;28;20636;-41
2020/12/29 08:14:41;;;;;;;0.00;0.00;;;17.10;64.60;;;;;;4229328;28;20054;-41
2020/12/29 08:17:04;;;;;;;0.15;0.15;;;17.00;64.70;;;;;;4229020;28;20051;-42
2020/12/29 08:19:25;;;;;;;0.45;0.10;;;16.90;65.20;;;;;;4228990;28;20056;-42
2020/12/29 08:21:50;;;;;;;0.00;0.00;;;16.90;65.70;;;;;;4229065;28;20070;-42
2020/12/29 08:24:11;;;;;;;0.60;0.60;;;16.70;66.20;;;;;;4229178;28;20593;-42
2020/12/29 08:26:32;;;;;;;0.00;0.00;;;16.60;66.60;;;;;;4227985;28;20048;-41
2020/12/29 08:28:53;;;;;;;0.00;0.00;;;16.60;67.10;;;;;;4228600;28;20126;-41
2020/12/29 08:31:20;;;;;;;0.00;0.00;;;16.50;67.00;;;;;;4229215;28;20051;-42
2020/12/29 08:33:42;;;;;;;0.20;0.20;;;16.50;66.80;;;;;;4228983;28;20079;-41
2020/12/29 08:36:04;;;;;;;0.55;0.15;;;16.50;66.10;;;;;;4229264;28;20098;-41
2020/12/29 08:38:42;;;;;;;0.00;0.00;;;16.60;65.90;;;;;;4229000;28;20147;-41
2020/12/29 08:41:17;;;;;;;0.88;0.60;;;16.60;65.90;;;;;;4228825;28;20079;-40
2020/12/29 08:43:43;;;;;;;0.00;0.00;;;16.50;66.10;;;;;;4228959;28;20132;-41
2020/12/29 08:46:05;;;;;;;0.45;0.45;;;16.50;66.60;;;;;;4228838;28;20051;-41
2020/12/29 08:48:27;;;;;;;0.70;0.70;;;16.30;67.10;;;;;;4228885;28;20051;-41
2020/12/29 08:50:48;;;;;;;0.03;0.03;;;16.20;67.60;;;;;;4229032;28;20071;-41
2020/12/29 08:53:09;;;;;;;1.17;1.08;;;16.10;68.30;;;;;;4228348;28;20048;-41
2020/12/29 08:55:32;;;;;;;0.00;0.00;;;16.10;68.40;;;;;;4229061;28;20101;-41
2020/12/29 08:57:56;;;;;;;0.32;0.32;;;16.30;67.70;;;;;;4228923;28;20056;-41
2020/12/29 09:00:17;;;;;;;0.03;0.03;;;16.50;67.10;;;;;;4229107;28;20056;-42
2020/12/29 09:02:37;;;;;;;0.00;0.00;;;16.50;66.70;;;;;;4227639;28;20513;-41
2020/12/29 09:05:00;;;;;;;0.10;0.10;;;16.60;66.80;;;;;;4228377;28;20059;-41
2020/12/29 09:07:20;;;;;;;0.00;0.00;;;16.60;66.60;;;;;;4229000;28;20079;-41
2020/12/29 09:10:03;;;;;;;0.00;0.00;;;16.50;66.80;;;;;;4231158;28;20093;-41
2020/12/29 09:12:30;;;;;;;0.10;0.10;;;16.50;67.10;;;;;;4232051;28;20055;-41
2020/12/29 09:14:53;;;;;;;0.00;0.00;;;16.40;67.40;;;;;;4231682;28;20048;-41
2020/12/29 09:17:17;;;;;;;0.00;0.00;;;16.40;67.80;;;;;;4231479;28;20153;-40
2020/12/29 09:19:37;;;;;;;0.00;0.00;;;16.50;67.60;;;;;;4231830;28;20055;-41
2020/12/29 09:22:09;;;;;;;0.10;0.10;;;16.60;67.00;;;;;;4232163;28;20070;-41
2020/12/29 09:24:31;;;;;;;0.00;0.00;;;16.70;66.30;;;;;;4231349;27;20051;-41
2020/12/29 09:26:52;;;;;;;0.00;0.00;;;16.80;66.20;;;;;;4232055;28;20071;-41
2020/12/29 09:29:19;;;;;;;0.00;0.00;;;16.70;66.30;;;;;;4231109;27;20055;-41
2020/12/29 09:31:40;;;;;;;0.00;0.00;;;16.60;66.60;;;;;;4231931;28;20044;-41
2020/12/29 09:34:01;;;;;;;0.00;0.00;;;16.60;67.00;;;;;;4231709;28;20051;-41
2020/12/29 09:36:23;;;;;;;0.15;0.15;;;16.50;67.50;;;;;;4231566;28;20043;-41
2020/12/29 09:38:45;;;;;;;0.43;0.43;;;16.40;68.00;;;;;;4231511;28;20127;-41
2020/12/29 09:41:06;;;;;;;0.65;0.65;;;16.20;68.50;;;;;;4231554;28;20048;-42
2020/12/29 09:43:27;;;;;;;0.00;0.00;;;16.10;69.00;;;;;;4231457;28;20090;-41
2020/12/29 09:45:48;;;;;;;0.00;0.00;;;16.10;69.30;;;;;;4229987;28;20044;-41
2020/12/29 09:48:09;;;;;;;0.60;0.60;;;16.10;69.70;;;;;;4231789;28;20117;-41
2020/12/29 09:50:30;;;;;;;0.00;0.00;;;16.10;69.80;;;;;;4231215;28;20050;-42
2020/12/29 09:52:51;;;;;;;0.10;0.10;;;16.20;69.10;;;;;;4226766;28;20074;-41
2020/12/29 09:55:13;;;;;;;0.00;0.00;;;16.50;68.20;;;;;;4231457;28;20051;-41
2020/12/29 09:57:34;;;;;;;0.00;0.00;;;16.60;67.60;;;;;;4226149;28;20597;-41
2020/12/29 09:59:55;;;;;;;0.00;0.00;;;16.60;67.50;;;;;;4230083;28;20054;-41
2020/12/29 10:02:16;;;;;;;0.20;0.20;;;16.50;67.60;;;;;;4230510;28;20571;-41
2020/12/29 10:04:37;;;;;;;0.35;0.35;;;16.40;68.10;;;;;;4223378;28;20478;-41
2020/12/29 10:06:58;;;;;;;0.10;0.10;;;16.30;68.60;;;;;;4231462;28;20055;-41
2020/12/29 10:09:19;;;;;;;0.13;0.13;;;16.20;69.20;;;;;;4230753;28;20083;-41
2020/12/29 10:11:41;;;;;;;0.55;0.55;;;16.20;69.30;;;;;;4231080;28;20051;-41
2020/12/29 10:14:02;;;;;;;0.10;0.10;;;16.30;69.00;;;;;;4230884;28;20051;-42
2020/12/29 10:16:23;;;;;;;0.75;0.75;;;16.30;68.80;;;;;;4230725;28;20055;-42
2020/12/29 10:18:44;;;;;;;0.00;0.00;;;16.30;69.00;;;;;;4230934;28;20131;-41
2020/12/29 10:21:05;;;;;;;0.00;0.00;;;16.20;69.30;;;;;;4230076;28;20079;-41
2020/12/29 10:23:27;;;;;;;1.08;0.77;;;16.20;69.70;;;;;;4230439;28;20067;-44
2020/12/29 10:25:47;;;;;;;4.28;1.65;;;16.20;69.70;;;;;;4231083;28;20048;-43
2020/12/29 10:28:09;;;;;;;0.20;0.10;;;16.30;69.30;;;;;;4230571;28;20058;-46
2020/12/29 10:30:30;;;;;;;0.20;0.20;;;16.40;68.70;;;;;;4231145;28;20047;-41
2020/12/29 10:32:51;;;;;;;0.00;0.00;;;16.50;68.60;;;;;;4230480;28;20051;-42
2020/12/29 10:35:12;;;;;;;0.08;0.08;;;16.40;68.70;;;;;;4230720;28;20062;-41
2020/12/29 10:37:33;;;;;;;0.00;0.00;;;16.40;69.00;;;;;;4230578;28;20048;-43
2020/12/29 10:39:54;;;;;;;0.00;0.00;;;16.30;69.10;;;;;;4214079;28;20055;-41
2020/12/29 10:42:14;;;;;;;0.25;0.25;;;16.20;69.50;;;;;;4213838;28;20536;-41
2020/12/29 10:44:36;;;;;;;0.00;0.00;;;16.20;70.00;;;;;;4220275;28;20414;-41
2020/12/29 10:46:58;;;;;;;0.00;0.00;;;16.20;70.00;;;;;;4224390;28;20055;-42
2020/12/29 10:49:19;;;;;;;0.10;0.10;;;16.20;69.70;;;;;;4230854;28;20058;-41
2020/12/29 10:51:40;;;;;;;0.03;0.03;;;16.20;69.70;;;;;;4230252;28;20052;-45
2020/12/29 10:54:01;;;;;;;0.00;0.00;;;16.20;69.80;;;;;;4230429;28;20046;-43
2020/12/29 10:56:22;;;;;;;0.13;0.13;;;16.20;70.00;;;;;;4230147;28;20127;-41
2020/12/29 10:58:43;;;;;;;0.73;0.52;;;16.10;70.60;;;;;;4230776;28;20052;-41
2020/12/29 11:01:06;;;;;;;0.30;0.20;;;16.10;71.50;;;;;;4213276;28;20047;-41
2020/12/29 11:03:27;;;;;;;0.00;0.00;;;16.10;70.70;;;;;;4223394;28;20055;-43
2020/12/29 11:05:48;;;;;;;0.00;0.00;;;16.00;71.10;;;;;;4230432;28;20051;-41
2020/12/29 11:08:09;;;;;;;0.10;0.10;;;15.90;71.40;;;;;;4229729;28;20412;-41
2020/12/29 11:10:30;;;;;;;0.22;0.20;;;16.00;71.10;;;;;;4230062;28;20467;-42
2020/12/29 11:12:51;;;;;;;0.00;0.00;;;16.20;70.60;;;;;;4230270;27;20081;-41
2020/12/29 11:15:12;;;;;;;0.00;0.00;;;16.20;70.20;;;;;;4230189;28;20077;-41
2020/12/29 11:17:34;;;;;;;0.80;0.80;;;16.20;70.20;;;;;;4229704;28;20047;-41
2020/12/29 11:19:55;;;;;;;0.00;0.00;;;16.20;70.50;;;;;;4230101;28;20048;-41
2020/12/29 11:22:16;;;;;;;0.05;0.05;;;16.10;70.80;;;;;;4230079;28;20077;-41
2020/12/29 11:24:36;;;;;;;0.03;0.03;;;16.00;71.10;;;;;;4229744;28;20051;-42
2020/12/29 11:26:57;;;;;;;0.00;0.00;;;16.10;71.20;;;;;;4229575;28;20047;-45
2020/12/29 11:29:18;;;;;;;0.15;0.15;;;16.40;70.10;;;;;;4229873;28;20078;-41
2020/12/29 11:31:39;;;;;;;0.50;0.50;;;16.60;69.30;;;;;;4229688;28;20055;-43
2020/12/29 11:34:00;;;;;;;0.20;0.20;;;16.60;68.90;;;;;;4230017;28;20051;-42
2020/12/29 11:36:22;;;;;;;0.38;0.38;;;16.60;68.80;;;;;;4229637;28;20043;-41
2020/12/29 11:38:42;;;;;;;0.20;0.20;;;16.50;69.00;;;;;;4228893;28;20048;-41
2020/12/29 11:41:04;;;;;;;0.20;0.20;;;16.40;69.40;;;;;;4229569;28;20056;-41
2020/12/29 11:43:25;;;;;;;0.10;0.10;;;16.30;70.70;;;;;;4229379;28;20078;-41
2020/12/29 11:45:46;;;;;;;0.00;0.00;;;16.20;70.50;;;;;;4229715;28;20907;-41
2020/12/29 11:48:06;;;;;;;0.00;0.00;;;16.10;71.00;;;;;;4229926;28;20055;-41
2020/12/29 11:50:28;;;;;;;0.00;0.00;;;15.90;71.50;;;;;;4229101;28;20117;-42
2020/12/29 11:52:49;;;;;;;3.20;2.15;;;15.90;72.00;;;;;;4228903;28;20051;-41
2020/12/29 11:55:10;;;;;;;0.55;0.50;;;15.70;72.50;;;;;;4229853;28;20055;-42
2020/12/29 11:57:31;;;;;;;0.10;0.10;;;15.60;72.90;;;;;;4229743;28;20086;-43
2020/12/29 11:59:53;;;;;;;0.00;0.00;;;15.50;74.30;;;;;;4229284;28;20090;-42
2020/12/29 12:02:14;;;;;;;0.35;0.35;;;15.50;73.90;;;;;;4229913;28;20787;-42
2020/12/29 12:04:35;;;;;;;;;;;15.40;74.60;;;;;;4229396;28;20412;-42
2020/12/29 12:06:57;;;;;;;0.00;0.00;;;15.30;75.30;;;;;;4229592;28;19927;-42
2020/12/29 12:09:19;;;;;;;0.00;0.00;;;15.20;75.60;;;;;;4228915;28;20079;-41
2020/12/29 12:11:40;;;;;;;0.00;0.00;;;15.20;76.10;;;;;;4213917;28;20052;-41
2020/12/29 12:14:01;;;;;;;0.00;0.00;;;15.20;76.00;;;;;;4228668;28;20058;-41
2020/12/29 12:16:21;;;;;;;0.10;0.10;;;15.50;75.00;;;;;;4229128;28;20100;-42
2020/12/29 12:18:43;;;;;;;0.95;0.95;;;15.80;73.70;;;;;;4229206;28;20047;-41
2020/12/29 12:21:04;;;;;;;0.80;0.75;;;15.90;72.80;;;;;;4228008;28;20576;-41
2020/12/29 12:23:26;;;;;;;0.00;0.00;;;16.00;72.40;;;;;;4229500;28;20144;-42